sensor_id;sensor_type;location;lat;lon;timestamp;pressure;altitude;pressure_sealevel;temperature;humidity
62038;BME280;47991;42.974;12.082;2023-10-31T00:01:29;96658.33;;;17.73;93.82
62038;BME280;47991;42.974;12.082;2023-10-31T00:03:55;96666.36;;;17.76;93.15
62038;BME280;47991;42.974;12.082;2023-10-31T00:06:22;96668.61;;;17.77;92.95
62038;BME280;47991;42.974;12.082;2023-10-31T00:08:49;96678.84;;;17.83;92.45
62038;BME280;47991;42.974;12.082;2023-10-31T00:11:16;96688.01;;;17.81;92.86
62038;BME280;47991;42.974;12.082;2023-10-31T00:13:43;96686.46;;;17.80;92.93
62038;BME280;47991;42.974;12.082;2023-10-31T00:16:10;96687.36;;;17.77;93.27
62038;BME280;47991;42.974;12.082;2023-10-31T00:18:37;96690.34;;;17.76;93.28
62038;BME280;47991;42.974;12.082;2023-10-31T00:21:03;96688.85;;;17.76;93.22
62038;BME280;47991;42.974;12.082;2023-10-31T00:23:32;96691.48;;;17.72;93.64
62038;BME280;47991;42.974;12.082;2023-10-31T00:25:59;96691.89;;;17.67;94.11
62038;BME280;47991;42.974;12.082;2023-10-31T00:28:25;96688.30;;;17.69;93.52
62038;BME280;47991;42.974;12.082;2023-10-31T00:30:52;96702.14;;;17.71;93.31
62038;BME280;47991;42.974;12.082;2023-10-31T00:33:19;96711.13;;;17.67;93.61
62038;BME280;47991;42.974;12.082;2023-10-31T00:35:46;96711.39;;;17.71;93.37
62038;BME280;47991;42.974;12.082;2023-10-31T00:38:12;96718.20;;;17.71;93.58
62038;BME280;47991;42.974;12.082;2023-10-31T00:40:39;96720.58;;;17.70;93.23
62038;BME280;47991;42.974;12.082;2023-10-31T00:43:06;96720.95;;;17.70;93.11
62038;BME280;47991;42.974;12.082;2023-10-31T00:45:33;96723.38;;;17.66;92.60
62038;BME280;47991;42.974;12.082;2023-10-31T00:48:00;96728.23;;;17.64;92.77
62038;BME280;47991;42.974;12.082;2023-10-31T00:50:26;96727.08;;;17.65;92.54
62038;BME280;47991;42.974;12.082;2023-10-31T00:52:53;96728.61;;;17.63;92.51
62038;BME280;47991;42.974;12.082;2023-10-31T00:55:20;96726.63;;;17.64;92.15
62038;BME280;47991;42.974;12.082;2023-10-31T00:57:47;96722.96;;;17.65;91.48
62038;BME280;47991;42.974;12.082;2023-10-31T01:00:14;96710.73;;;17.63;91.27
62038;BME280;47991;42.974;12.082;2023-10-31T01:02:41;96697.76;;;17.65;90.78
62038;BME280;47991;42.974;12.082;2023-10-31T01:05:07;96693.65;;;17.59;90.80
62038;BME280;47991;42.974;12.082;2023-10-31T01:07:35;96687.05;;;17.57;90.77
62038;BME280;47991;42.974;12.082;2023-10-31T01:10:03;96682.79;;;17.54;90.14
62038;BME280;47991;42.974;12.082;2023-10-31T01:12:30;96690.92;;;17.50;89.88
62038;BME280;47991;42.974;12.082;2023-10-31T01:14:57;96697.45;;;17.47;89.31
62038;BME280;47991;42.974;12.082;2023-10-31T01:17:24;96707.46;;;17.44;88.40
62038;BME280;47991;42.974;12.082;2023-10-31T01:19:51;96714.13;;;17.44;87.38
62038;BME280;47991;42.974;12.082;2023-10-31T01:22:17;96710.54;;;17.49;86.52
62038;BME280;47991;42.974;12.082;2023-10-31T01:24:44;96711.45;;;17.44;86.03
62038;BME280;47991;42.974;12.082;2023-10-31T01:27:11;96709.18;;;17.43;85.47
62038;BME280;47991;42.974;12.082;2023-10-31T01:29:38;96711.46;;;17.46;84.71
62038;BME280;47991;42.974;12.082;2023-10-31T01:32:05;96718.47;;;17.43;84.80
62038;BME280;47991;42.974;12.082;2023-10-31T01:34:32;96720.08;;;17.43;84.56
62038;BME280;47991;42.974;12.082;2023-10-31T01:36:59;96724.98;;;17.42;84.37
62038;BME280;47991;42.974;12.082;2023-10-31T01:39:25;96727.48;;;17.39;84.26
62038;BME280;47991;42.974;12.082;2023-10-31T01:41:52;96721.89;;;17.35;84.50
62038;BME280;47991;42.974;12.082;2023-10-31T01:44:21;96720.08;;;17.33;84.14
62038;BME280;47991;42.974;12.082;2023-10-31T01:46:48;96719.34;;;17.36;83.56
62038;BME280;47991;42.974;12.082;2023-10-31T01:49:15;96722.48;;;17.39;82.72
62038;BME280;47991;42.974;12.082;2023-10-31T01:51:44;96737.85;;;17.39;82.60
62038;BME280;47991;42.974;12.082;2023-10-31T01:54:12;96743.80;;;17.36;82.88
62038;BME280;47991;42.974;12.082;2023-10-31T01:56:42;96751.16;;;17.28;83.39
62038;BME280;47991;42.974;12.082;2023-10-31T01:59:09;96750.45;;;17.26;83.73
62038;BME280;47991;42.974;12.082;2023-10-31T02:01:38;96756.27;;;17.22;84.23
62038;BME280;47991;42.974;12.082;2023-10-31T02:04:08;96755.48;;;17.18;84.56
62038;BME280;47991;42.974;12.082;2023-10-31T02:06:35;96752.23;;;17.18;84.29
62038;BME280;47991;42.974;12.082;2023-10-31T02:09:02;96758.30;;;17.15;84.50
62038;BME280;47991;42.974;12.082;2023-10-31T02:11:29;96759.26;;;17.15;84.55
62038;BME280;47991;42.974;12.082;2023-10-31T02:13:55;96755.27;;;17.18;84.24
62038;BME280;47991;42.974;12.082;2023-10-31T02:16:22;96757.67;;;17.22;84.42
62038;BME280;47991;42.974;12.082;2023-10-31T02:18:49;96752.07;;;17.20;84.48
62038;BME280;47991;42.974;12.082;2023-10-31T02:21:19;96738.99;;;17.13;85.15
62038;BME280;47991;42.974;12.082;2023-10-31T02:24:00;96740.73;;;17.14;85.03
62038;BME280;47991;42.974;12.082;2023-10-31T02:26:34;96731.42;;;17.12;85.45
62038;BME280;47991;42.974;12.082;2023-10-31T02:29:02;96728.16;;;17.13;85.38
62038;BME280;47991;42.974;12.082;2023-10-31T02:31:29;96730.77;;;17.16;85.59
62038;BME280;47991;42.974;12.082;2023-10-31T02:33:56;96729.76;;;17.15;85.70
62038;BME280;47991;42.974;12.082;2023-10-31T02:36:23;96729.67;;;17.14;85.94
62038;BME280;47991;42.974;12.082;2023-10-31T02:38:50;96724.30;;;17.07;86.74
62038;BME280;47991;42.974;12.082;2023-10-31T02:41:16;96726.98;;;17.12;86.49
62038;BME280;47991;42.974;12.082;2023-10-31T02:43:43;96730.47;;;17.15;86.42
62038;BME280;47991;42.974;12.082;2023-10-31T02:46:10;96720.33;;;17.12;86.95
62038;BME280;47991;42.974;12.082;2023-10-31T02:48:41;96717.63;;;17.08;87.43
62038;BME280;47991;42.974;12.082;2023-10-31T02:51:08;96727.45;;;17.12;86.92
62038;BME280;47991;42.974;12.082;2023-10-31T02:53:35;96742.75;;;17.16;86.97
62038;BME280;47991;42.974;12.082;2023-10-31T02:56:03;96752.79;;;17.17;87.24
62038;BME280;47991;42.974;12.082;2023-10-31T02:58:30;96746.78;;;17.29;86.01
62038;BME280;47991;42.974;12.082;2023-10-31T03:00:56;96744.91;;;17.30;86.32
62038;BME280;47991;42.974;12.082;2023-10-31T03:03:23;96741.27;;;17.27;86.51
62038;BME280;47991;42.974;12.082;2023-10-31T03:05:50;96746.85;;;17.31;86.14
62038;BME280;47991;42.974;12.082;2023-10-31T03:08:17;96745.96;;;17.31;86.06
62038;BME280;47991;42.974;12.082;2023-10-31T03:10:48;96743.65;;;17.36;85.93
62038;BME280;47991;42.974;12.082;2023-10-31T03:13:18;96750.93;;;17.39;86.02
62038;BME280;47991;42.974;12.082;2023-10-31T03:15:46;96756.55;;;17.43;86.00
62038;BME280;47991;42.974;12.082;2023-10-31T03:18:14;96753.08;;;17.41;86.39
62038;BME280;47991;42.974;12.082;2023-10-31T03:20:44;96756.05;;;17.35;86.78
62038;BME280;47991;42.974;12.082;2023-10-31T03:23:14;96752.25;;;17.33;87.18
62038;BME280;47991;42.974;12.082;2023-10-31T03:25:41;96744.38;;;17.33;87.49
62038;BME280;47991;42.974;12.082;2023-10-31T03:28:18;96739.30;;;17.27;88.18
62038;BME280;47991;42.974;12.082;2023-10-31T03:30:51;96740.45;;;17.25;88.24
62038;BME280;47991;42.974;12.082;2023-10-31T03:33:18;96735.84;;;17.25;88.60
62038;BME280;47991;42.974;12.082;2023-10-31T03:35:45;96740.36;;;17.24;88.38
62038;BME280;47991;42.974;12.082;2023-10-31T03:38:12;96738.68;;;17.28;88.05
62038;BME280;47991;42.974;12.082;2023-10-31T03:40:39;96732.12;;;17.30;88.14
62038;BME280;47991;42.974;12.082;2023-10-31T03:43:06;96730.66;;;17.28;88.49
62038;BME280;47991;42.974;12.082;2023-10-31T03:45:32;96727.09;;;17.25;88.82
62038;BME280;47991;42.974;12.082;2023-10-31T03:47:59;96721.92;;;17.25;88.66
62038;BME280;47991;42.974;12.082;2023-10-31T03:50:26;96721.72;;;17.28;88.35
62038;BME280;47991;42.974;12.082;2023-10-31T03:52:53;96719.59;;;17.22;88.71
62038;BME280;47991;42.974;12.082;2023-10-31T03:55:20;96712.66;;;17.25;88.67
62038;BME280;47991;42.974;12.082;2023-10-31T03:57:46;96709.63;;;17.22;88.95
62038;BME280;47991;42.974;12.082;2023-10-31T04:00:14;96707.80;;;17.25;88.75
62038;BME280;47991;42.974;12.082;2023-10-31T04:02:41;96717.77;;;17.28;88.57
62038;BME280;47991;42.974;12.082;2023-10-31T04:05:08;96713.76;;;17.24;88.69
62038;BME280;47991;42.974;12.082;2023-10-31T04:07:35;96715.73;;;17.24;88.78
62038;BME280;47991;42.974;12.082;2023-10-31T04:10:03;96709.45;;;17.24;88.85
62038;BME280;47991;42.974;12.082;2023-10-31T04:12:31;96717.36;;;17.26;88.63
62038;BME280;47991;42.974;12.082;2023-10-31T04:14:58;96713.31;;;17.28;88.30
62038;BME280;47991;42.974;12.082;2023-10-31T04:17:25;96715.08;;;17.28;88.05
62038;BME280;47991;42.974;12.082;2023-10-31T04:19:51;96716.64;;;17.29;87.92
62038;BME280;47991;42.974;12.082;2023-10-31T04:22:18;96707.48;;;17.29;87.99
62038;BME280;47991;42.974;12.082;2023-10-31T04:24:45;96706.95;;;17.29;87.96
62038;BME280;47991;42.974;12.082;2023-10-31T04:27:12;96684.17;;;17.30;87.83
62038;BME280;47991;42.974;12.082;2023-10-31T04:29:40;96682.19;;;17.23;88.26
62038;BME280;47991;42.974;12.082;2023-10-31T04:32:06;96689.23;;;17.20;88.41
62038;BME280;47991;42.974;12.082;2023-10-31T04:34:39;96691.94;;;17.22;88.01
62038;BME280;47991;42.974;12.082;2023-10-31T04:37:06;96694.81;;;17.19;88.16
62038;BME280;47991;42.974;12.082;2023-10-31T04:39:33;96696.83;;;17.21;87.98
62038;BME280;47991;42.974;12.082;2023-10-31T04:42:00;96691.09;;;17.21;87.85
62038;BME280;47991;42.974;12.082;2023-10-31T04:44:26;96689.05;;;17.20;87.86
62038;BME280;47991;42.974;12.082;2023-10-31T04:46:53;96690.61;;;17.20;88.11
62038;BME280;47991;42.974;12.082;2023-10-31T04:49:20;96697.14;;;17.19;88.37
62038;BME280;47991;42.974;12.082;2023-10-31T04:51:48;96701.58;;;17.19;88.21
62038;BME280;47991;42.974;12.082;2023-10-31T04:54:15;96700.88;;;17.24;87.93
62038;BME280;47991;42.974;12.082;2023-10-31T04:56:41;96702.44;;;17.23;88.37
62038;BME280;47991;42.974;12.082;2023-10-31T04:59:08;96705.38;;;17.27;88.17
62038;BME280;47991;42.974;12.082;2023-10-31T05:01:35;96708.22;;;17.24;88.54
62038;BME280;47991;42.974;12.082;2023-10-31T05:04:02;96707.00;;;17.26;88.40
62038;BME280;47991;42.974;12.082;2023-10-31T05:06:29;96705.27;;;17.28;88.37
62038;BME280;47991;42.974;12.082;2023-10-31T05:08:56;96702.04;;;17.28;88.46
62038;BME280;47991;42.974;12.082;2023-10-31T05:11:23;96708.80;;;17.33;88.07
62038;BME280;47991;42.974;12.082;2023-10-31T05:13:50;96710.53;;;17.36;88.08
62038;BME280;47991;42.974;12.082;2023-10-31T05:16:17;96704.13;;;17.36;88.28
62038;BME280;47991;42.974;12.082;2023-10-31T05:18:44;96703.65;;;17.35;88.43
62038;BME280;47991;42.974;12.082;2023-10-31T05:21:10;96706.33;;;17.38;88.33
62038;BME280;47991;42.974;12.082;2023-10-31T05:23:38;96700.84;;;17.37;88.36
62038;BME280;47991;42.974;12.082;2023-10-31T05:26:05;96711.09;;;17.39;88.35
62038;BME280;47991;42.974;12.082;2023-10-31T05:28:32;96713.77;;;17.41;88.28
62038;BME280;47991;42.974;12.082;2023-10-31T05:30:59;96705.08;;;17.43;88.16
62038;BME280;47991;42.974;12.082;2023-10-31T05:33:26;96700.73;;;17.36;89.33
62038;BME280;47991;42.974;12.082;2023-10-31T05:35:53;96688.27;;;17.33;89.05
62038;BME280;47991;42.974;12.082;2023-10-31T05:38:20;96695.31;;;17.30;89.51
62038;BME280;47991;42.974;12.082;2023-10-31T05:40:47;96696.24;;;17.32;88.97
62038;BME280;47991;42.974;12.082;2023-10-31T05:43:14;96698.71;;;17.35;88.59
62038;BME280;47991;42.974;12.082;2023-10-31T05:45:41;96702.42;;;17.37;88.47
62038;BME280;47991;42.974;12.082;2023-10-31T05:48:08;96706.67;;;17.33;88.86
62038;BME280;47991;42.974;12.082;2023-10-31T05:50:35;96713.83;;;17.35;88.45
62038;BME280;47991;42.974;12.082;2023-10-31T05:53:01;96723.92;;;17.34;88.51
62038;BME280;47991;42.974;12.082;2023-10-31T05:55:28;96726.73;;;17.39;87.63
62038;BME280;47991;42.974;12.082;2023-10-31T05:57:55;96732.66;;;17.39;87.55
62038;BME280;47991;42.974;12.082;2023-10-31T06:00:23;96738.92;;;17.37;87.18
62038;BME280;47991;42.974;12.082;2023-10-31T06:02:50;96745.70;;;17.37;86.46
62038;BME280;47991;42.974;12.082;2023-10-31T06:05:17;96745.67;;;17.37;85.94
62038;BME280;47991;42.974;12.082;2023-10-31T06:07:44;96760.02;;;17.37;85.55
62038;BME280;47991;42.974;12.082;2023-10-31T06:10:11;96768.92;;;17.34;85.54
62038;BME280;47991;42.974;12.082;2023-10-31T06:12:38;96777.61;;;17.35;85.16
62038;BME280;47991;42.974;12.082;2023-10-31T06:15:05;96784.56;;;17.36;84.89
62038;BME280;47991;42.974;12.082;2023-10-31T06:17:32;96781.08;;;17.42;84.22
62038;BME280;47991;42.974;12.082;2023-10-31T06:20:01;96786.77;;;17.40;84.05
62038;BME280;47991;42.974;12.082;2023-10-31T06:22:28;96791.80;;;17.37;84.27
62038;BME280;47991;42.974;12.082;2023-10-31T06:24:55;96797.70;;;17.37;84.30
62038;BME280;47991;42.974;12.082;2023-10-31T06:27:24;96800.73;;;17.39;83.87
62038;BME280;47991;42.974;12.082;2023-10-31T06:29:51;96804.84;;;17.40;83.76
62038;BME280;47991;42.974;12.082;2023-10-31T06:32:18;96809.53;;;17.39;83.97
62038;BME280;47991;42.974;12.082;2023-10-31T06:34:45;96818.33;;;17.38;83.73
62038;BME280;47991;42.974;12.082;2023-10-31T06:37:12;96818.77;;;17.39;83.55
62038;BME280;47991;42.974;12.082;2023-10-31T06:39:39;96823.53;;;17.38;83.01
62038;BME280;47991;42.974;12.082;2023-10-31T06:42:06;96828.48;;;17.38;82.98
62038;BME280;47991;42.974;12.082;2023-10-31T06:44:32;96831.22;;;17.40;82.42
62038;BME280;47991;42.974;12.082;2023-10-31T06:46:59;96835.75;;;17.42;82.82
62038;BME280;47991;42.974;12.082;2023-10-31T06:49:26;96840.66;;;17.41;82.84
62038;BME280;47991;42.974;12.082;2023-10-31T06:51:53;96846.48;;;17.42;82.62
62038;BME280;47991;42.974;12.082;2023-10-31T06:54:20;96853.79;;;17.37;82.64
62038;BME280;47991;42.974;12.082;2023-10-31T06:56:47;96848.67;;;17.38;82.37
62038;BME280;47991;42.974;12.082;2023-10-31T06:59:14;96847.98;;;17.41;81.98
62038;BME280;47991;42.974;12.082;2023-10-31T07:01:41;96853.11;;;17.39;81.52
62038;BME280;47991;42.974;12.082;2023-10-31T07:04:09;96862.61;;;17.41;81.44
62038;BME280;47991;42.974;12.082;2023-10-31T07:06:36;96855.92;;;17.39;81.46
62038;BME280;47991;42.974;12.082;2023-10-31T07:09:03;96854.02;;;17.44;81.28
62038;BME280;47991;42.974;12.082;2023-10-31T07:11:32;96863.21;;;17.48;81.31
62038;BME280;47991;42.974;12.082;2023-10-31T07:14:01;96876.23;;;17.56;80.83
62038;BME280;47991;42.974;12.082;2023-10-31T07:16:29;96883.08;;;17.63;80.33
62038;BME280;47991;42.974;12.082;2023-10-31T07:18:56;96884.91;;;17.67;80.16
62038;BME280;47991;42.974;12.082;2023-10-31T07:21:23;96895.59;;;17.73;80.46
62038;BME280;47991;42.974;12.082;2023-10-31T07:23:49;96911.87;;;17.78;81.08
62038;BME280;47991;42.974;12.082;2023-10-31T07:26:16;96916.91;;;17.80;79.93
62038;BME280;47991;42.974;12.082;2023-10-31T07:28:43;96916.85;;;17.68;77.81
62038;BME280;47991;42.974;12.082;2023-10-31T07:31:10;96921.55;;;17.46;78.96
62038;BME280;47991;42.974;12.082;2023-10-31T07:33:37;96932.29;;;17.28;79.79
62038;BME280;47991;42.974;12.082;2023-10-31T07:36:04;96927.55;;;17.22;80.55
62038;BME280;47991;42.974;12.082;2023-10-31T07:38:31;96931.44;;;17.14;80.15
62038;BME280;47991;42.974;12.082;2023-10-31T07:40:57;96950.05;;;17.11;79.91
62038;BME280;47991;42.974;12.082;2023-10-31T07:43:24;96945.09;;;17.05;79.27
62038;BME280;47991;42.974;12.082;2023-10-31T07:45:51;96951.75;;;16.94;78.50
62038;BME280;47991;42.974;12.082;2023-10-31T07:48:18;96954.99;;;16.83;78.75
62038;BME280;47991;42.974;12.082;2023-10-31T07:50:45;96960.41;;;16.73;79.45
62038;BME280;47991;42.974;12.082;2023-10-31T07:53:12;96953.75;;;16.69;79.84
62038;BME280;47991;42.974;12.082;2023-10-31T07:55:38;96951.88;;;16.67;79.62
62038;BME280;47991;42.974;12.082;2023-10-31T07:58:05;96955.97;;;16.65;79.54
62038;BME280;47991;42.974;12.082;2023-10-31T08:00:32;96969.56;;;16.59;80.01
62038;BME280;47991;42.974;12.082;2023-10-31T08:03:02;96973.88;;;16.61;80.26
62038;BME280;47991;42.974;12.082;2023-10-31T08:05:28;96975.48;;;16.77;79.99
62038;BME280;47991;42.974;12.082;2023-10-31T08:07:55;96981.61;;;16.96;79.72
62038;BME280;47991;42.974;12.082;2023-10-31T08:10:22;96987.33;;;17.07;79.52
62038;BME280;47991;42.974;12.082;2023-10-31T08:12:49;96991.89;;;17.05;78.80
62038;BME280;47991;42.974;12.082;2023-10-31T08:15:16;96994.33;;;17.17;79.24
62038;BME280;47991;42.974;12.082;2023-10-31T08:17:43;97001.05;;;17.36;78.79
62038;BME280;47991;42.974;12.082;2023-10-31T08:20:10;96999.55;;;17.43;78.60
62038;BME280;47991;42.974;12.082;2023-10-31T08:22:39;97007.45;;;17.58;78.49
62038;BME280;47991;42.974;12.082;2023-10-31T08:25:06;97009.02;;;17.66;79.21
62038;BME280;47991;42.974;12.082;2023-10-31T08:27:33;97013.12;;;18.21;77.71
62038;BME280;47991;42.974;12.082;2023-10-31T08:30:00;97022.70;;;18.81;75.29
62038;BME280;47991;42.974;12.082;2023-10-31T08:32:26;97024.48;;;19.25;73.41
62038;BME280;47991;42.974;12.082;2023-10-31T08:34:53;97026.15;;;19.30;74.20
62038;BME280;47991;42.974;12.082;2023-10-31T08:37:20;97017.86;;;19.82;72.54
62038;BME280;47991;42.974;12.082;2023-10-31T08:39:47;97012.40;;;19.85;71.51
62038;BME280;47991;42.974;12.082;2023-10-31T08:42:14;97009.86;;;20.31;70.03
62038;BME280;47991;42.974;12.082;2023-10-31T08:44:41;97003.23;;;21.51;68.43
62038;BME280;47991;42.974;12.082;2023-10-31T08:47:08;97007.39;;;23.00;61.99
62038;BME280;47991;42.974;12.082;2023-10-31T08:49:35;97012.40;;;22.48;63.99
62038;BME280;47991;42.974;12.082;2023-10-31T08:52:01;97011.40;;;22.33;63.79
62038;BME280;47991;42.974;12.082;2023-10-31T08:54:30;97021.06;;;22.27;63.53
62038;BME280;47991;42.974;12.082;2023-10-31T08:56:57;97028.28;;;23.40;60.24
62038;BME280;47991;42.974;12.082;2023-10-31T08:59:24;97019.20;;;23.91;56.83
62038;BME280;47991;42.974;12.082;2023-10-31T09:01:51;97023.60;;;23.23;57.67
62038;BME280;47991;42.974;12.082;2023-10-31T09:04:18;97018.55;;;23.34;57.54
62038;BME280;47991;42.974;12.082;2023-10-31T09:06:44;97011.09;;;24.20;54.06
62038;BME280;47991;42.974;12.082;2023-10-31T09:09:11;97012.13;;;24.05;52.82
62038;BME280;47991;42.974;12.082;2023-10-31T09:11:40;97019.39;;;24.08;55.05
62038;BME280;47991;42.974;12.082;2023-10-31T09:14:07;97020.29;;;24.61;52.64
62038;BME280;47991;42.974;12.082;2023-10-31T09:16:34;97030.48;;;24.98;51.29
62038;BME280;47991;42.974;12.082;2023-10-31T09:19:01;97034.84;;;25.21;50.25
62038;BME280;47991;42.974;12.082;2023-10-31T09:21:28;97045.00;;;25.38;49.73
62038;BME280;47991;42.974;12.082;2023-10-31T09:23:55;97052.15;;;25.47;50.31
62038;BME280;47991;42.974;12.082;2023-10-31T09:26:22;97058.40;;;25.28;50.21
62038;BME280;47991;42.974;12.082;2023-10-31T09:28:49;97062.86;;;24.94;50.41
62038;BME280;47991;42.974;12.082;2023-10-31T09:31:19;97067.48;;;25.50;47.63
62038;BME280;47991;42.974;12.082;2023-10-31T09:33:46;97064.95;;;26.18;46.00
62038;BME280;47991;42.974;12.082;2023-10-31T09:36:13;97066.17;;;27.29;44.47
62038;BME280;47991;42.974;12.082;2023-10-31T09:38:40;97068.04;;;26.68;44.55
62038;BME280;47991;42.974;12.082;2023-10-31T09:41:08;97069.77;;;27.19;43.82
62038;BME280;47991;42.974;12.082;2023-10-31T09:43:35;97074.62;;;26.39;44.69
62038;BME280;47991;42.974;12.082;2023-10-31T09:46:02;97084.45;;;24.74;47.72
62038;BME280;47991;42.974;12.082;2023-10-31T09:48:31;97091.09;;;23.71;49.52
62038;BME280;47991;42.974;12.082;2023-10-31T09:50:59;97094.36;;;22.75;50.00
62038;BME280;47991;42.974;12.082;2023-10-31T09:53:27;97099.56;;;22.12;49.96
62038;BME280;47991;42.974;12.082;2023-10-31T09:55:55;97099.81;;;21.67;50.40
62038;BME280;47991;42.974;12.082;2023-10-31T09:58:24;97103.56;;;21.78;49.09
62038;BME280;47991;42.974;12.082;2023-10-31T10:00:50;97096.62;;;21.81;47.57
62038;BME280;47991;42.974;12.082;2023-10-31T10:03:17;97104.13;;;21.93;47.57
62038;BME280;47991;42.974;12.082;2023-10-31T10:05:45;97108.17;;;22.00;47.70
62038;BME280;47991;42.974;12.082;2023-10-31T10:08:14;97106.41;;;21.85;48.87
62038;BME280;47991;42.974;12.082;2023-10-31T10:10:41;97106.13;;;21.65;48.71
62038;BME280;47991;42.974;12.082;2023-10-31T10:16:07;97107.31;;;21.08;48.40
62038;BME280;47991;42.974;12.082;2023-10-31T10:18:35;97106.56;;;20.87;47.68
62038;BME280;47991;42.974;12.082;2023-10-31T10:21:04;97112.83;;;20.69;48.07
62038;BME280;47991;42.974;12.082;2023-10-31T10:23:33;97110.33;;;20.80;48.55
62038;BME280;47991;42.974;12.082;2023-10-31T10:26:02;97103.99;;;21.10;48.34
62038;BME280;47991;42.974;12.082;2023-10-31T10:28:29;97102.08;;;21.35;47.41
62038;BME280;47991;42.974;12.082;2023-10-31T10:30:56;97099.46;;;21.41;48.67
62038;BME280;47991;42.974;12.082;2023-10-31T10:33:23;97106.45;;;21.61;49.22
62038;BME280;47991;42.974;12.082;2023-10-31T10:35:50;97096.09;;;21.66;47.19
62038;BME280;47991;42.974;12.082;2023-10-31T10:38:18;97107.11;;;21.57;49.85
62038;BME280;47991;42.974;12.082;2023-10-31T10:40:47;97115.27;;;21.50;51.22
62038;BME280;47991;42.974;12.082;2023-10-31T10:43:23;97121.75;;;21.34;51.61
62038;BME280;47991;42.974;12.082;2023-10-31T10:45:54;97114.79;;;21.11;51.98
62038;BME280;47991;42.974;12.082;2023-10-31T10:48:26;97113.15;;;20.96;53.01
62038;BME280;47991;42.974;12.082;2023-10-31T10:51:06;97107.84;;;21.11;53.22
62038;BME280;47991;42.974;12.082;2023-10-31T10:53:58;97111.05;;;20.96;51.00
62038;BME280;47991;42.974;12.082;2023-10-31T10:56:36;97109.53;;;20.76;49.71
62038;BME280;47991;42.974;12.082;2023-10-31T10:59:21;97110.13;;;20.60;50.75
62038;BME280;47991;42.974;12.082;2023-10-31T11:01:49;97108.14;;;20.44;50.04
62038;BME280;47991;42.974;12.082;2023-10-31T11:04:16;97120.06;;;20.36;50.86
62038;BME280;47991;42.974;12.082;2023-10-31T11:06:44;97123.40;;;20.28;51.10
62038;BME280;47991;42.974;12.082;2023-10-31T11:09:13;97121.05;;;20.21;51.54
62038;BME280;47991;42.974;12.082;2023-10-31T11:11:40;97121.79;;;20.11;51.85
62038;BME280;47991;42.974;12.082;2023-10-31T11:14:08;97117.27;;;20.09;52.50
62038;BME280;47991;42.974;12.082;2023-10-31T11:16:48;97117.23;;;20.10;51.26
62038;BME280;47991;42.974;12.082;2023-10-31T11:19:16;97117.76;;;20.01;51.58
62038;BME280;47991;42.974;12.082;2023-10-31T11:21:53;97113.55;;;19.88;51.62
62038;BME280;47991;42.974;12.082;2023-10-31T11:24:21;97115.83;;;19.76;50.90
62038;BME280;47991;42.974;12.082;2023-10-31T11:26:53;97114.33;;;19.96;50.39
62038;BME280;47991;42.974;12.082;2023-10-31T11:29:20;97099.96;;;20.31;51.73
62038;BME280;47991;42.974;12.082;2023-10-31T11:31:47;97090.39;;;20.25;50.67
62038;BME280;47991;42.974;12.082;2023-10-31T11:34:16;97093.33;;;20.05;50.80
62038;BME280;47991;42.974;12.082;2023-10-31T11:36:45;97101.95;;;19.87;51.63
62038;BME280;47991;42.974;12.082;2023-10-31T11:39:19;97104.03;;;19.69;52.19
62038;BME280;47991;42.974;12.082;2023-10-31T11:41:55;97089.33;;;19.47;52.16
62038;BME280;47991;42.974;12.082;2023-10-31T11:44:23;97088.04;;;19.28;52.36
62038;BME280;47991;42.974;12.082;2023-10-31T11:46:52;97089.17;;;19.13;52.64
62038;BME280;47991;42.974;12.082;2023-10-31T11:49:47;97101.34;;;19.09;53.09
62038;BME280;47991;42.974;12.082;2023-10-31T11:52:16;97099.73;;;19.23;53.93
62038;BME280;47991;42.974;12.082;2023-10-31T11:54:43;97095.77;;;19.50;52.83
62038;BME280;47991;42.974;12.082;2023-10-31T11:57:10;97088.83;;;19.73;52.84
62038;BME280;47991;42.974;12.082;2023-10-31T11:59:38;97089.20;;;19.94;52.28
62038;BME280;47991;42.974;12.082;2023-10-31T12:02:15;97089.14;;;20.09;52.25
62038;BME280;47991;42.974;12.082;2023-10-31T12:04:42;97087.05;;;20.17;52.05
62038;BME280;47991;42.974;12.082;2023-10-31T12:07:09;97076.88;;;20.32;51.68
62038;BME280;47991;42.974;12.082;2023-10-31T12:09:48;97086.61;;;20.44;51.81
62038;BME280;47991;42.974;12.082;2023-10-31T12:12:15;97089.29;;;20.60;51.48
62038;BME280;47991;42.974;12.082;2023-10-31T12:14:42;97091.09;;;20.73;50.57
62038;BME280;47991;42.974;12.082;2023-10-31T12:17:09;97099.13;;;20.85;50.73
62038;BME280;47991;42.974;12.082;2023-10-31T12:19:36;97104.91;;;21.01;50.02
62038;BME280;47991;42.974;12.082;2023-10-31T12:22:13;97103.71;;;21.22;50.03
62038;BME280;47991;42.974;12.082;2023-10-31T12:24:40;97109.14;;;21.54;49.57
62038;BME280;47991;42.974;12.082;2023-10-31T12:27:07;97107.11;;;21.74;48.82
62038;BME280;47991;42.974;12.082;2023-10-31T12:29:34;97110.51;;;21.85;48.60
62038;BME280;47991;42.974;12.082;2023-10-31T12:32:01;97107.95;;;21.88;49.00
62038;BME280;47991;42.974;12.082;2023-10-31T12:34:29;97107.72;;;21.99;47.25
62038;BME280;47991;42.974;12.082;2023-10-31T12:37:01;97112.52;;;22.04;45.47
62038;BME280;47991;42.974;12.082;2023-10-31T12:39:30;97108.16;;;22.07;44.43
62038;BME280;47991;42.974;12.082;2023-10-31T12:41:57;97109.14;;;22.16;44.51
62038;BME280;47991;42.974;12.082;2023-10-31T12:44:26;97113.91;;;22.26;44.03
62038;BME280;47991;42.974;12.082;2023-10-31T12:46:54;97113.30;;;22.37;43.21
62038;BME280;47991;42.974;12.082;2023-10-31T12:49:21;97106.95;;;22.65;42.16
62038;BME280;47991;42.974;12.082;2023-10-31T12:52:01;97097.97;;;22.93;36.76
62038;BME280;47991;42.974;12.082;2023-10-31T12:54:34;97099.12;;;22.96;36.27
62038;BME280;47991;42.974;12.082;2023-10-31T12:57:05;97093.63;;;22.75;35.63